Low Head, Tasmania

5:44 AM AEST on June 03, 2015 (GMT +1000)
Deviot | | Change Station
CLOSE
Current Station
Personal Weather Station
Location: Deviot, TASMANIA
Elevation: 56 ft
Nearby Weather Stations

Elev 56 ft 41.23 °S, 146.93 °E | Updated 1 second ago

Clear
Clear
32.9 °F
Feels Like 30 °F
N
3.1
Wind Variable Wind from South
Gusts 3.1 mph

Today
High -- | Low -- °F
--% Chance of Precip.
Yesterday
High -- | Low -- °F
Precip. -- in
7:29 AM 4:52 PM
Full, 100% visible
Pressure 30.24 in
Visibility 6.2 miles
Clouds
Windchill 30 °F
Dew Point 30 °F
Humidity 88%
Rainfall 0.00 in
Snow Depth Not available.
UV Not available.
Pollen Not available.
Air Quality Not available.
Flu Activity Not available.
METAR YMLT 021930Z AUTO 11002KT 9999 // NCD M03/M04 Q1024

More Conditions Fewer Conditions

Pressure 30.24 in
Visibility 6.2 miles
Clouds
Windchill 30 °F
Dew Point 30 °F
Humidity 88%
Rainfall 0.00 in
Snow Depth Not available.
UV Not available.
Pollen Not available.
Air Quality Not available.
Flu Activity Not available.
METAR YMLT 021930Z AUTO 11002KT 9999 // NCD M03/M04 Q1024

More Conditions Fewer Conditions

10-Day Weather Forecast

×

Almanac

Astronomy

Jun. 03, 2015 Rise Set
Actual Time
Civil Twilight
Nautical Twilight
Astronomical Twilight
Moon
Length of Visible Light
Length of Day
Tomorrow will be .
, % of the Moon is Illuminated

Today's Extremes

Country Highs Country Lows

Community

WunderPhotos

Upload Photos

1,826,010 photos uploaded!

WunderBlogs® & News

Nearby

Air Quality

  Air Quality AQ Index Pollutant
Not available.

Snow Depth

Station Depth Elevation

Earthquake Activity

City Distance Mag. Time & Date
Minimum magnitude displayed is 2.5.

Coastal Water Temperatures

Place Temperature

Stations

Nearby Weather Stations

Station Location Temp. Windchill Dew Point Humidity Wind Precip. Elev Updated Type